Time;durP1;ratioP1;P1;durP2;ratioP2;P2;SDS_P1;SDS_P2;PMS_P1;PMS_P2;Temp;Humidity;BMP_temperature;BMP_pressure;BME280_temperature;BME280_humidity;BME280_pressure;Samples;Min_cycle;Max_cycle;Signal;HPM_P1;HPM_P2
2023/12/30 00:01:52;;;;;;;2.00;1.37;;;7.50;1.00;;;;;;5069336;28;20447;-72
2023/12/30 00:04:19;;;;;;;3.30;1.08;;;7.50;1.00;;;;;;5069869;28;20462;-71
2023/12/30 00:06:46;;;;;;;1.17;0.90;;;7.50;1.00;;;;;;5090172;28;20287;-70
2023/12/30 00:09:14;;;;;;;2.95;1.55;;;7.60;1.00;;;;;;5088382;27;21320;-75
2023/12/30 00:11:41;;;;;;;2.60;1.20;;;7.60;1.00;;;;;;5074604;28;20335;-72
2023/12/30 00:14:08;;;;;;;1.83;1.20;;;7.60;1.00;;;;;;5075177;28;20583;-72
2023/12/30 00:16:36;;;;;;;2.60;1.43;;;7.60;1.00;;;;;;5088385;27;20491;-74
2023/12/30 00:19:04;;;;;;;1.50;1.03;;;7.60;1.00;;;;;;5078841;27;20476;-75
2023/12/30 00:21:31;;;;;;;2.95;1.25;;;7.70;1.00;;;;;;5071362;28;20931;-71
2023/12/30 00:23:58;;;;;;;1.90;1.00;;;7.70;1.00;;;;;;5070065;28;20359;-73
2023/12/30 00:26:27;;;;;;;1.57;0.80;;;7.70;1.00;;;;;;5087886;27;20524;-72
2023/12/30 00:28:54;;;;;;;1.40;0.90;;;7.80;1.00;;;;;;5086083;27;20974;-74
2023/12/30 00:31:26;;;;;;;1.20;1.00;;;7.80;1.00;;;;;;5091086;27;20958;-72
2023/12/30 00:33:55;;;;;;;1.47;1.10;;;7.80;1.00;;;;;;5089366;27;21023;-73
2023/12/30 00:36:22;;;;;;;2.33;1.23;;;7.90;1.00;;;;;;5089049;27;20558;-73
2023/12/30 00:38:48;;;;;;;1.23;0.67;;;7.90;1.00;;;;;;5088294;27;21249;-71
2023/12/30 00:41:15;;;;;;;0.80;0.73;;;7.90;1.00;;;;;;5086516;27;20469;-71
2023/12/30 00:43:44;;;;;;;4.20;1.00;;;7.90;1.00;;;;;;5076590;28;21057;-72
2023/12/30 00:46:11;;;;;;;1.10;0.63;;;8.00;1.00;;;;;;5089978;27;20903;-71
2023/12/30 00:48:37;;;;;;;2.57;1.27;;;8.00;1.00;;;;;;5089219;27;20547;-71
2023/12/30 00:51:05;;;;;;;1.10;0.80;;;8.00;1.00;;;;;;5080771;28;20549;-70
2023/12/30 00:53:32;;;;;;;1.73;1.40;;;8.00;1.00;;;;;;5085003;27;20989;-71
2023/12/30 00:55:59;;;;;;;1.23;1.00;;;8.00;1.00;;;;;;5092597;28;20446;-71
2023/12/30 00:58:26;;;;;;;2.20;1.20;;;8.10;1.00;;;;;;5091540;28;20467;-71
2023/12/30 01:00:56;;;;;;;2.30;1.27;;;8.10;1.00;;;;;;5090464;28;20454;-72
2023/12/30 01:03:23;;;;;;;1.77;1.50;;;8.20;1.00;;;;;;5088485;27;20467;-75
2023/12/30 01:05:50;;;;;;;1.70;1.47;;;8.20;1.00;;;;;;5092063;28;20455;-74
2023/12/30 01:08:17;;;;;;;1.20;1.00;;;8.10;1.00;;;;;;5089366;28;20514;-75
2023/12/30 01:10:44;;;;;;;4.63;1.67;;;8.10;1.00;;;;;;5088370;27;20430;-71
2023/12/30 01:13:11;;;;;;;2.00;1.40;;;8.10;1.00;;;;;;5090775;28;20495;-72
2023/12/30 01:15:38;;;;;;;2.23;1.50;;;8.20;1.00;;;;;;5089713;27;20469;-71
2023/12/30 01:18:06;;;;;;;2.77;1.50;;;8.20;1.00;;;;;;5089063;27;20471;-71
2023/12/30 01:20:33;;;;;;;2.73;1.43;;;8.20;1.00;;;;;;5089475;27;20545;-70
2023/12/30 01:23:00;;;;;;;2.30;1.40;;;8.30;1.00;;;;;;5089973;28;20454;-71
2023/12/30 01:25:27;;;;;;;1.83;1.40;;;8.30;1.00;;;;;;5089665;27;20467;-73
2023/12/30 01:27:57;;;;;;;2.27;1.40;;;8.30;1.00;;;;;;5080209;28;20524;-71
2023/12/30 01:30:23;;;;;;;1.80;1.40;;;8.30;1.00;;;;;;5077987;28;20546;-72
2023/12/30 01:32:50;;;;;;;1.40;1.17;;;8.20;1.00;;;;;;5087400;27;21101;-72
2023/12/30 01:35:19;;;;;;;2.60;1.33;;;8.20;1.00;;;;;;5073025;28;20456;-70
2023/12/30 01:37:45;;;;;;;4.07;1.03;;;8.10;1.00;;;;;;5081774;27;20485;-71
2023/12/30 01:40:12;;;;;;;1.10;1.07;;;8.10;1.00;;;;;;5091393;27;20504;-71
2023/12/30 01:42:41;;;;;;;1.40;0.90;;;8.00;1.00;;;;;;5087541;27;20980;-71
2023/12/30 01:45:08;;;;;;;1.40;1.20;;;8.00;1.00;;;;;;5089583;27;20550;-73
2023/12/30 01:47:36;;;;;;;1.67;1.03;;;7.90;1.00;;;;;;5090494;27;21049;-72
2023/12/30 01:50:04;;;;;;;1.63;1.37;;;7.90;1.00;;;;;;5093131;28;20462;-74
2023/12/30 01:52:34;;;;;;;1.10;1.00;;;7.80;1.00;;;;;;5089545;27;21237;-73
2023/12/30 01:55:01;;;;;;;1.10;0.90;;;7.80;1.00;;;;;;5088720;27;21228;-74
2023/12/30 01:57:28;;;;;;;2.10;1.00;;;7.80;1.00;;;;;;5082215;27;20608;-72
2023/12/30 01:59:55;;;;;;;2.17;0.97;;;7.90;1.00;;;;;;5089841;27;20459;-74
2023/12/30 02:02:22;;;;;;;1.73;1.00;;;7.90;1.00;;;;;;5088971;27;20507;-72
2023/12/30 02:04:49;;;;;;;1.00;0.90;;;7.90;1.00;;;;;;5086630;28;20452;-72
2023/12/30 02:07:17;;;;;;;2.57;1.33;;;7.90;1.00;;;;;;5081312;28;20478;-72
2023/12/30 02:09:45;;;;;;;2.40;1.37;;;7.90;1.00;;;;;;5073197;27;20526;-73
2023/12/30 02:12:13;;;;;;;3.43;1.50;;;8.00;1.00;;;;;;5089869;27;20524;-72
2023/12/30 02:14:40;;;;;;;4.23;1.90;;;7.90;1.00;;;;;;5071884;28;20557;-72
2023/12/30 02:17:06;;;;;;;2.47;2.10;;;7.90;1.00;;;;;;5067724;28;20484;-73
2023/12/30 02:19:35;;;;;;;3.30;1.67;;;7.90;1.00;;;;;;5086809;27;20478;-73
2023/12/30 02:22:02;;;;;;;2.97;1.60;;;8.00;1.00;;;;;;5090859;27;20470;-73
2023/12/30 02:24:30;;;;;;;1.63;1.47;;;8.00;1.00;;;;;;5078976;27;21190;-73
2023/12/30 02:26:57;;;;;;;2.07;1.50;;;8.00;1.00;;;;;;5070322;28;20494;-72
2023/12/30 02:29:24;;;;;;;3.38;1.13;;;7.90;1.00;;;;;;5087276;27;20453;-72
2023/12/30 02:31:51;;;;;;;3.83;1.60;;;7.90;1.00;;;;;;5088010;27;21051;-73
2023/12/30 02:34:19;;;;;;;2.70;1.80;;;7.90;1.00;;;;;;5072054;28;20533;-74
2023/12/30 02:36:47;;;;;;;4.63;1.70;;;8.00;1.00;;;;;;5072308;27;20499;-73
2023/12/30 02:39:15;;;;;;;1.70;1.13;;;7.90;1.00;;;;;;5087505;28;20538;-72
2023/12/30 02:41:43;;;;;;;3.90;1.40;;;7.90;1.00;;;;;;5090193;27;20469;-69
2023/12/30 02:44:10;;;;;;;3.20;1.23;;;7.90;1.00;;;;;;5089554;28;20469;-70
2023/12/30 02:46:37;;;;;;;3.03;1.10;;;7.90;1.00;;;;;;5083740;27;20491;-72
2023/12/30 02:49:04;;;;;;;1.60;1.10;;;7.80;1.00;;;;;;5089864;28;20483;-70
2023/12/30 02:51:32;;;;;;;1.40;1.30;;;7.80;1.00;;;;;;5086340;28;20557;-70
2023/12/30 02:53:59;;;;;;;2.07;1.30;;;7.80;1.00;;;;;;5082669;27;20548;-71
2023/12/30 02:56:27;;;;;;;2.83;1.17;;;7.80;1.00;;;;;;5076964;27;20583;-70
2023/12/30 02:58:57;;;;;;;2.03;1.23;;;7.80;1.00;;;;;;5087182;28;20508;-70
2023/12/30 03:01:25;;;;;;;1.87;1.10;;;7.80;1.00;;;;;;5088567;28;20535;-71
2023/12/30 03:03:53;;;;;;;1.73;1.20;;;7.80;1.00;;;;;;5091943;28;20435;-70
2023/12/30 03:06:21;;;;;;;1.57;0.97;;;7.70;1.00;;;;;;5088052;27;20572;-72
2023/12/30 03:08:48;;;;;;;1.73;0.93;;;7.80;1.00;;;;;;5086930;28;20498;-70
2023/12/30 03:11:15;;;;;;;2.13;0.67;;;7.80;1.00;;;;;;5087693;28;20466;-70
2023/12/30 03:13:42;;;;;;;2.40;0.90;;;7.80;1.00;;;;;;5077816;28;20531;-71
2023/12/30 03:16:13;;;;;;;1.90;1.13;;;7.70;1.00;;;;;;5085586;28;20458;-71
2023/12/30 03:18:40;;;;;;;1.40;0.90;;;7.80;1.00;;;;;;5086242;27;20977;-70
2023/12/30 03:21:08;;;;;;;2.00;1.20;;;7.70;1.00;;;;;;5086633;27;20962;-73
2023/12/30 03:23:35;;;;;;;1.03;0.60;;;7.80;1.00;;;;;;5076486;27;20528;-71
2023/12/30 03:26:02;;;;;;;1.43;0.87;;;7.70;1.00;;;;;;5088280;27;20593;-74
2023/12/30 03:28:29;;;;;;;2.80;0.90;;;7.80;1.00;;;;;;5085498;27;20546;-71
2023/12/30 03:30:56;;;;;;;1.10;0.87;;;7.80;1.00;;;;;;5090097;28;20459;-70
2023/12/30 03:33:25;;;;;;;1.50;0.83;;;7.70;1.00;;;;;;5091476;28;21052;-68
2023/12/30 03:35:52;;;;;;;5.53;1.10;;;7.70;1.00;;;;;;5092474;28;21041;-70
2023/12/30 03:38:18;;;;;;;4.40;2.90;;;7.70;1.00;;;;;;5089568;28;21083;-70
2023/12/30 03:40:45;;;;;;;1.57;0.83;;;7.70;1.00;;;;;;5088274;28;20263;-71
2023/12/30 03:43:13;;;;;;;2.40;0.80;;;7.70;1.00;;;;;;5079870;27;20547;-70
2023/12/30 03:45:41;;;;;;;3.77;3.33;;;7.70;1.00;;;;;;5085531;27;20465;-69
2023/12/30 03:48:08;;;;;;;2.70;1.10;;;7.70;1.00;;;;;;5078676;27;20558;-72
2023/12/30 03:50:37;;;;;;;1.30;0.60;;;7.70;1.00;;;;;;5076495;28;20458;-71
2023/12/30 03:53:05;;;;;;;1.17;0.80;;;7.70;1.00;;;;;;5069681;28;20549;-75
2023/12/30 03:55:32;;;;;;;2.07;1.10;;;7.70;1.00;;;;;;5069333;27;20507;-71
2023/12/30 03:57:58;;;;;;;2.63;1.60;;;7.60;1.00;;;;;;5064985;28;20554;-72
2023/12/30 04:00:25;;;;;;;3.45;1.30;;;7.60;1.00;;;;;;5067755;28;22109;-72
2023/12/30 04:02:52;;;;;;;3.20;0.80;;;7.60;1.00;;;;;;5067167;28;20236;-71
2023/12/30 04:05:19;;;;;;;1.70;0.97;;;7.60;1.00;;;;;;5081629;28;20478;-69
2023/12/30 04:07:48;;;;;;;1.75;1.00;;;7.60;1.00;;;;;;5085126;28;21298;-69
2023/12/30 04:10:14;;;;;;;1.30;1.00;;;7.70;1.00;;;;;;5089191;27;20238;-74
2023/12/30 04:12:41;;;;;;;1.60;0.90;;;7.70;1.00;;;;;;5086332;27;20502;-74
2023/12/30 04:15:10;;;;;;;2.40;0.57;;;7.70;1.00;;;;;;5073741;28;20498;-71
2023/12/30 04:17:37;;;;;;;1.20;0.80;;;7.70;1.00;;;;;;5085106;28;20465;-72
2023/12/30 04:20:05;;;;;;;1.50;0.93;;;7.70;1.00;;;;;;5090609;27;20236;-71
2023/12/30 04:22:32;;;;;;;1.97;1.13;;;7.70;1.00;;;;;;5085533;27;20450;-72
2023/12/30 04:25:00;;;;;;;1.17;0.88;;;7.70;1.00;;;;;;5087185;28;21009;-71
2023/12/30 04:27:27;;;;;;;2.55;0.70;;;7.70;1.00;;;;;;5089634;27;20240;-73
2023/12/30 04:29:54;;;;;;;1.23;0.80;;;7.70;1.00;;;;;;5094216;27;21633;-72
2023/12/30 04:32:21;;;;;;;1.03;0.50;;;7.70;1.00;;;;;;5090782;27;20593;-74
2023/12/30 04:34:49;;;;;;;1.10;0.70;;;7.70;1.00;;;;;;5090068;27;20478;-72
2023/12/30 04:37:16;;;;;;;2.78;0.98;;;7.70;1.00;;;;;;5081269;27;20465;-71
2023/12/30 04:39:43;;;;;;;1.40;0.70;;;7.70;1.00;;;;;;5082397;27;20270;-72
2023/12/30 04:42:12;;;;;;;4.07;1.00;;;7.70;1.00;;;;;;5085837;27;20458;-72
2023/12/30 04:44:40;;;;;;;2.00;0.80;;;7.70;1.00;;;;;;5075269;28;20989;-74
2023/12/30 04:47:07;;;;;;;1.20;0.73;;;7.70;1.00;;;;;;5087809;27;20559;-72
2023/12/30 04:49:34;;;;;;;1.00;0.60;;;7.70;1.00;;;;;;5092983;27;20419;-73
2023/12/30 04:52:01;;;;;;;1.30;0.60;;;7.60;1.00;;;;;;5094523;27;20247;-73
2023/12/30 04:54:30;;;;;;;0.95;0.52;;;7.60;1.00;;;;;;5084170;27;20572;-73
2023/12/30 04:56:57;;;;;;;1.02;0.68;;;7.60;1.00;;;;;;5074476;28;20248;-75
2023/12/30 04:59:26;;;;;;;1.97;0.60;;;7.50;1.00;;;;;;5071715;28;20330;-76
2023/12/30 05:01:54;;;;;;;1.10;0.77;;;7.50;1.00;;;;;;5072583;28;20468;-73
2023/12/30 05:04:21;;;;;;;2.42;0.60;;;7.50;1.00;;;;;;5074878;28;21657;-73
2023/12/30 05:06:48;;;;;;;0.73;0.60;;;7.40;1.00;;;;;;5087448;27;21214;-73
2023/12/30 05:09:15;;;;;;;0.80;0.67;;;7.40;1.00;;;;;;5084978;28;20843;-73
2023/12/30 05:11:45;;;;;;;0.73;0.50;;;7.40;1.00;;;;;;5082260;28;20989;-73
2023/12/30 05:14:12;;;;;;;1.27;0.57;;;7.40;1.00;;;;;;5090314;27;20992;-73
2023/12/30 05:16:46;;;;;;;1.83;0.80;;;7.50;1.00;;;;;;5084242;27;20455;-74
2023/12/30 05:19:13;;;;;;;1.00;0.70;;;7.60;1.00;;;;;;5073160;27;20239;-72
2023/12/30 05:21:40;;;;;;;3.33;0.80;;;7.60;1.00;;;;;;5080208;27;20542;-72
2023/12/30 05:24:08;;;;;;;1.65;0.60;;;7.60;1.00;;;;;;5084549;27;21329;-71
2023/12/30 05:26:35;;;;;;;3.20;1.57;;;7.60;1.00;;;;;;5077630;27;20243;-71
2023/12/30 05:29:02;;;;;;;0.70;0.60;;;7.70;1.00;;;;;;5090385;28;20569;-71
2023/12/30 05:31:29;;;;;;;1.20;0.70;;;7.70;1.00;;;;;;5087580;27;20472;-71
2023/12/30 05:33:58;;;;;;;1.83;0.70;;;7.80;1.00;;;;;;5093045;28;20549;-69
2023/12/30 05:36:25;;;;;;;0.90;0.70;;;7.80;1.00;;;;;;5089539;27;20462;-71
2023/12/30 05:38:52;;;;;;;1.50;0.80;;;7.70;1.00;;;;;;5091510;28;20965;-72
2023/12/30 05:41:19;;;;;;;0.87;0.70;;;7.70;1.00;;;;;;5092465;27;20483;-71
2023/12/30 05:43:46;;;;;;;0.93;0.60;;;7.70;1.00;;;;;;5091397;28;20932;-71
2023/12/30 05:46:17;;;;;;;1.63;0.70;;;7.70;1.00;;;;;;5091211;27;20521;-75
2023/12/30 05:48:44;;;;;;;1.60;0.80;;;7.70;1.00;;;;;;5089916;27;20631;-74
2023/12/30 05:51:12;;;;;;;1.33;0.57;;;7.70;1.00;;;;;;5086187;28;20453;-72
2023/12/30 05:53:41;;;;;;;2.00;0.50;;;7.70;1.00;;;;;;5088461;27;20461;-71
2023/12/30 05:56:08;;;;;;;1.33;0.90;;;7.80;1.00;;;;;;5086308;28;20945;-72
2023/12/30 05:58:37;;;;;;;1.40;0.60;;;7.70;1.00;;;;;;5068482;27;20533;-71
2023/12/30 06:01:04;;;;;;;4.20;0.77;;;7.70;1.00;;;;;;5076260;28;20452;-71
2023/12/30 06:03:31;;;;;;;1.45;0.60;;;7.70;1.00;;;;;;5068563;28;20467;-71
2023/12/30 06:05:58;;;;;;;3.45;0.80;;;7.60;1.00;;;;;;5071352;28;20342;-71
2023/12/30 06:08:27;;;;;;;1.10;0.87;;;7.60;1.00;;;;;;5084439;28;20797;-72
2023/12/30 06:10:53;;;;;;;0.90;0.60;;;7.50;1.00;;;;;;5089541;28;20465;-71
2023/12/30 06:13:21;;;;;;;1.57;0.90;;;7.40;1.00;;;;;;5089809;27;20486;-71
2023/12/30 06:15:51;;;;;;;1.60;0.73;;;7.40;1.00;;;;;;5089443;27;20466;-71
2023/12/30 06:18:18;;;;;;;1.23;0.70;;;7.30;1.00;;;;;;5084071;27;20258;-72
2023/12/30 06:20:46;;;;;;;1.47;0.63;;;7.20;1.00;;;;;;5071429;28;21475;-71
2023/12/30 06:23:14;;;;;;;2.20;1.00;;;7.10;1.00;;;;;;5083568;27;20555;-71
2023/12/30 06:25:43;;;;;;;1.70;0.70;;;7.00;1.00;;;;;;5086968;27;20700;-71
2023/12/30 06:28:10;;;;;;;4.10;0.80;;;7.00;1.00;;;;;;5085796;27;20505;-73
2023/12/30 06:30:37;;;;;;;2.20;0.80;;;7.00;1.00;;;;;;5088595;28;20494;-73
2023/12/30 06:33:06;;;;;;;1.90;0.90;;;6.90;1.00;;;;;;5088884;27;20996;-73
2023/12/30 06:35:34;;;;;;;2.93;1.20;;;6.90;1.00;;;;;;5088760;27;20469;-75
2023/12/30 06:38:02;;;;;;;4.17;1.27;;;6.90;1.00;;;;;;5088347;27;20905;-73
2023/12/30 06:40:29;;;;;;;2.37;1.20;;;6.80;1.00;;;;;;5081111;27;20497;-74
2023/12/30 06:42:57;;;;;;;1.65;0.90;;;6.80;1.00;;;;;;5067052;28;20474;-73
2023/12/30 06:45:26;;;;;;;1.58;1.15;;;6.80;1.00;;;;;;5087697;27;20246;-72
2023/12/30 06:47:53;;;;;;;2.13;0.70;;;6.70;1.00;;;;;;5089531;28;20247;-73
2023/12/30 06:50:22;;;;;;;1.37;1.10;;;6.70;1.00;;;;;;5088023;28;20243;-73
2023/12/30 06:52:49;;;;;;;2.60;0.80;;;6.70;1.00;;;;;;5088904;28;20454;-73
2023/12/30 06:55:16;;;;;;;3.72;1.00;;;6.70;1.00;;;;;;5088891;27;20341;-73
2023/12/30 06:57:43;;;;;;;5.90;1.42;;;6.60;1.00;;;;;;5086879;28;20233;-72
2023/12/30 07:00:12;;;;;;;3.83;1.07;;;6.60;1.00;;;;;;5087879;27;20270;-73
2023/12/30 07:02:41;;;;;;;1.15;0.75;;;6.60;1.00;;;;;;5087795;27;20556;-73
2023/12/30 07:05:08;;;;;;;1.02;0.90;;;6.60;1.00;;;;;;5083338;27;21982;-73
2023/12/30 07:07:36;;;;;;;1.63;0.95;;;6.60;1.00;;;;;;5082336;27;20333;-73
2023/12/30 07:10:05;;;;;;;2.88;1.55;;;6.60;1.00;;;;;;5066137;28;20741;-73
2023/12/30 07:12:32;;;;;;;3.35;1.10;;;6.60;1.00;;;;;;5066724;28;20237;-73
2023/12/30 07:14:59;;;;;;;6.05;1.58;;;6.60;1.00;;;;;;5081372;27;20271;-73
2023/12/30 07:17:27;;;;;;;2.22;1.00;;;6.60;1.00;;;;;;5086300;28;20271;-74
2023/12/30 07:19:54;;;;;;;3.20;1.00;;;6.60;1.00;;;;;;5075618;27;21892;-73
2023/12/30 07:22:22;;;;;;;3.38;1.05;;;6.60;1.00;;;;;;5089231;28;20479;-73
2023/12/30 07:24:48;;;;;;;4.05;0.90;;;6.60;1.00;;;;;;5075452;28;20237;-74
2023/12/30 07:27:15;;;;;;;2.97;1.40;;;6.60;1.00;;;;;;5065683;28;20249;-73
2023/12/30 07:29:42;;;;;;;1.50;1.40;;;6.60;1.00;;;;;;5069696;28;20328;-72
2023/12/30 07:32:09;;;;;;;3.05;1.33;;;6.60;1.00;;;;;;5066164;28;20790;-70
2023/12/30 07:34:37;;;;;;;2.70;1.10;;;6.60;1.00;;;;;;5068043;28;20334;-70
2023/12/30 07:37:04;;;;;;;3.08;1.10;;;6.60;1.00;;;;;;5065195;28;21073;-72
2023/12/30 07:39:33;;;;;;;2.50;1.00;;;6.60;1.00;;;;;;5070152;27;20246;-74
2023/12/30 07:42:01;;;;;;;4.50;1.15;;;6.60;1.00;;;;;;5065245;28;20964;-73
2023/12/30 07:44:29;;;;;;;4.85;1.23;;;6.60;1.00;;;;;;5066439;28;20314;-73
2023/12/30 07:46:56;;;;;;;3.35;1.17;;;6.60;1.00;;;;;;5077451;27;21013;-74
2023/12/30 07:49:23;;;;;;;2.60;1.05;;;6.60;1.00;;;;;;5074051;27;20243;-73
2023/12/30 07:51:53;;;;;;;4.30;1.55;;;6.70;1.00;;;;;;5075301;27;21110;-70
2023/12/30 07:54:20;;;;;;;3.35;1.60;;;6.70;1.00;;;;;;5076567;28;20754;-71
2023/12/30 07:56:46;;;;;;;3.05;1.25;;;6.60;1.00;;;;;;5059817;27;21256;-72
2023/12/30 07:59:13;;;;;;;2.33;1.30;;;6.70;1.00;;;;;;5060932;28;20950;-72
2023/12/30 08:01:44;;;;;;;1.90;1.20;;;6.70;1.00;;;;;;5072379;28;20543;-74
2023/12/30 08:04:11;;;;;;;3.28;1.65;;;6.70;1.00;;;;;;5082048;27;20238;-70
2023/12/30 08:06:40;;;;;;;2.55;1.30;;;6.70;1.00;;;;;;5075135;27;20250;-70
2023/12/30 08:09:09;;;;;;;2.88;1.50;;;6.60;1.00;;;;;;5074051;28;20318;-71
2023/12/30 08:11:36;;;;;;;1.97;1.13;;;6.60;1.00;;;;;;5090652;27;20292;-71
2023/12/30 08:14:03;;;;;;;4.32;1.27;;;6.60;1.00;;;;;;5087228;28;20544;-71
2023/12/30 08:16:30;;;;;;;5.03;1.60;;;6.50;1.00;;;;;;5078387;27;20273;-72
2023/12/30 08:18:57;;;;;;;3.40;1.37;;;6.60;1.00;;;;;;5072357;28;20235;-71
2023/12/30 08:21:24;;;;;;;2.60;1.60;;;6.60;1.00;;;;;;5068338;27;20577;-71
2023/12/30 08:23:51;;;;;;;2.92;1.38;;;6.60;1.00;;;;;;5078427;27;20482;-71
2023/12/30 08:26:19;;;;;;;2.53;1.37;;;6.60;1.00;;;;;;5085282;27;20378;-72
2023/12/30 08:28:46;;;;;;;2.60;1.30;;;6.70;1.00;;;;;;5087832;27;20548;-71
2023/12/30 08:31:13;;;;;;;2.35;1.10;;;6.70;1.00;;;;;;5087615;28;21197;-73
2023/12/30 08:33:40;;;;;;;4.25;1.48;;;6.70;1.00;;;;;;5077822;27;20241;-70
2023/12/30 08:36:08;;;;;;;3.47;1.67;;;6.70;1.00;;;;;;5080523;27;20344;-70
2023/12/30 08:38:34;;;;;;;3.42;1.38;;;6.70;1.00;;;;;;5070756;27;20238;-71
2023/12/30 08:41:02;;;;;;;3.70;1.95;;;6.70;1.00;;;;;;5085484;28;20245;-71
2023/12/30 08:43:31;;;;;;;2.90;1.27;;;6.70;1.00;;;;;;5086782;28;20299;-71
2023/12/30 08:45:58;;;;;;;1.60;1.15;;;6.70;1.00;;;;;;5090792;28;20524;-71
2023/12/30 08:48:25;;;;;;;2.43;1.30;;;6.70;1.00;;;;;;5085560;27;20246;-72
2023/12/30 08:50:52;;;;;;;4.43;1.83;;;6.70;1.00;;;;;;5088907;28;20665;-72
2023/12/30 08:53:24;;;;;;;2.30;1.55;;;6.70;1.00;;;;;;5090999;27;20682;-72
2023/12/30 08:55:52;;;;;;;4.18;1.45;;;6.80;1.00;;;;;;5087194;28;20704;-75
2023/12/30 08:58:21;;;;;;;3.53;1.63;;;6.80;1.00;;;;;;5067337;27;20322;-71
2023/12/30 09:00:49;;;;;;;5.50;2.10;;;6.80;1.00;;;;;;5068564;28;20479;-73
2023/12/30 09:03:16;;;;;;;4.65;2.35;;;6.90;1.00;;;;;;5063948;27;20474;-72
2023/12/30 09:05:44;;;;;;;3.97;1.60;;;6.90;1.00;;;;;;5059005;28;20300;-72
2023/12/30 09:08:11;;;;;;;3.67;1.30;;;7.00;1.00;;;;;;5077425;27;20711;-72
2023/12/30 09:10:39;;;;;;;4.10;1.42;;;7.10;1.00;;;;;;5087592;27;20519;-71
2023/12/30 09:13:06;;;;;;;2.72;1.33;;;7.10;1.00;;;;;;5086183;27;20747;-71
2023/12/30 09:15:35;;;;;;;3.53;1.77;;;7.20;1.00;;;;;;5087787;27;20749;-72
2023/12/30 09:18:04;;;;;;;4.43;1.90;;;7.30;1.00;;;;;;5088216;27;20759;-72
2023/12/30 09:20:31;;;;;;;6.67;2.10;;;7.30;1.00;;;;;;5087198;27;20470;-72
2023/12/30 09:22:58;;;;;;;3.97;1.93;;;7.60;1.00;;;;;;5087147;27;20516;-69
2023/12/30 09:25:25;;;;;;;4.27;1.97;;;7.70;1.00;;;;;;5090438;27;20601;-72
2023/12/30 09:27:52;;;;;;;2.70;1.40;;;7.80;1.00;;;;;;5089647;27;20446;-71
2023/12/30 09:30:19;;;;;;;2.20;2.00;;;7.80;1.00;;;;;;5070357;27;20466;-69
2023/12/30 09:32:46;;;;;;;4.97;1.70;;;7.80;1.00;;;;;;5068215;28;20547;-71
2023/12/30 09:35:15;;;;;;;3.70;2.07;;;7.90;1.00;;;;;;5066440;27;20569;-70
2023/12/30 09:37:42;;;;;;;3.67;1.50;;;7.90;1.00;;;;;;5069012;27;21342;-70
2023/12/30 09:40:10;;;;;;;3.97;1.70;;;7.80;1.00;;;;;;5067642;28;20477;-72
2023/12/30 09:42:38;;;;;;;4.53;1.83;;;7.80;1.00;;;;;;5079213;28;20520;-71
2023/12/30 09:45:06;;;;;;;4.20;1.73;;;7.80;1.00;;;;;;5086112;27;20479;-72
2023/12/30 09:47:33;;;;;;;5.27;2.00;;;7.80;1.00;;;;;;5081458;27;20460;-73
2023/12/30 09:50:00;;;;;;;4.23;1.97;;;7.80;1.00;;;;;;5076821;28;20518;-76
2023/12/30 09:52:29;;;;;;;5.33;1.87;;;7.80;1.00;;;;;;5077407;28;20516;-72
2023/12/30 09:54:57;;;;;;;3.70;1.70;;;7.80;1.00;;;;;;5075307;27;20693;-72
2023/12/30 09:57:24;;;;;;;5.03;2.30;;;7.80;1.00;;;;;;5071962;28;20474;-71
2023/12/30 09:59:53;;;;;;;5.47;1.77;;;7.80;1.00;;;;;;5081411;28;20479;-71
2023/12/30 10:02:19;;;;;;;4.60;2.47;;;7.80;1.00;;;;;;5068523;28;20566;-69
2023/12/30 10:04:49;;;;;;;5.40;2.23;;;7.90;1.00;;;;;;5071219;27;20514;-71
2023/12/30 10:07:16;;;;;;;4.47;2.43;;;7.90;1.00;;;;;;5065743;27;21090;-71
2023/12/30 10:09:46;;;;;;;4.73;2.30;;;8.00;1.00;;;;;;5081431;28;21261;-70
2023/12/30 10:12:13;;;;;;;2.13;1.90;;;8.00;1.00;;;;;;5067450;27;20558;-69
2023/12/30 10:14:40;;;;;;;9.70;2.30;;;8.10;1.00;;;;;;5082511;28;20538;-70
2023/12/30 10:17:07;;;;;;;3.50;2.10;;;8.00;1.00;;;;;;5071926;28;20455;-71
2023/12/30 10:19:35;;;;;;;4.30;2.13;;;8.00;1.00;;;;;;5091470;27;20576;-69
2023/12/30 10:22:02;;;;;;;5.33;1.80;;;8.00;1.00;;;;;;5087490;27;20574;-70
2023/12/30 10:24:28;;;;;;;3.10;2.27;;;8.00;1.00;;;;;;5088074;27;20554;-71
2023/12/30 10:27:03;;;;;;;4.50;2.17;;;8.00;1.00;;;;;;5089142;28;20564;-71
2023/12/30 10:29:30;;;;;;;5.90;2.27;;;8.20;1.00;;;;;;5086669;28;20470;-72
2023/12/30 10:32:03;;;;;;;8.57;2.70;;;8.30;1.00;;;;;;5085623;28;21058;-72
2023/12/30 10:34:30;;;;;;;6.07;2.50;;;8.30;1.00;;;;;;5085355;27;20556;-71
2023/12/30 10:36:58;;;;;;;3.30;1.97;;;8.40;1.00;;;;;;5089002;28;20549;-71
2023/12/30 10:39:26;;;;;;;4.43;2.10;;;8.40;1.00;;;;;;5089670;27;20487;-71
2023/12/30 10:41:57;;;;;;;7.70;3.00;;;8.50;1.00;;;;;;5085622;27;20540;-73
2023/12/30 10:44:25;;;;;;;3.70;1.77;;;8.50;1.00;;;;;;5085544;28;20534;-72
2023/12/30 10:46:53;;;;;;;3.97;1.97;;;8.50;1.00;;;;;;5086704;27;20477;-71
2023/12/30 10:49:22;;;;;;;5.40;2.13;;;8.50;1.00;;;;;;5076153;28;20475;-70
2023/12/30 10:51:53;;;;;;;3.43;2.03;;;8.50;1.00;;;;;;5067837;28;20538;-72
2023/12/30 10:54:28;;;;;;;4.50;2.43;;;8.60;1.00;;;;;;5084325;28;21078;-71
2023/12/30 10:57:02;;;;;;;6.40;2.40;;;8.50;1.00;;;;;;5067042;28;20580;-71
2023/12/30 10:59:31;;;;;;;11.50;3.60;;;8.70;1.00;;;;;;5084898;28;20466;-73
2023/12/30 11:01:58;;;;;;;6.17;2.07;;;8.70;1.00;;;;;;5086766;27;20467;-71
2023/12/30 11:04:25;;;;;;;4.57;2.17;;;8.70;1.00;;;;;;5088225;27;20471;-73
2023/12/30 11:06:55;;;;;;;2.87;2.07;;;8.70;1.00;;;;;;5085763;27;20456;-73
2023/12/30 11:09:27;;;;;;;6.20;2.40;;;8.70;1.00;;;;;;5063769;28;20494;-71
2023/12/30 11:11:56;;;;;;;4.10;1.83;;;8.60;1.00;;;;;;5078144;27;20494;-75
2023/12/30 11:14:23;;;;;;;7.97;2.40;;;8.60;1.00;;;;;;5073059;27;20464;-72
2023/12/30 11:16:51;;;;;;;6.30;2.47;;;8.80;1.00;;;;;;5072477;28;20482;-72
2023/12/30 11:19:27;;;;;;;6.63;2.13;;;8.80;1.00;;;;;;5086089;28;20914;-72
2023/12/30 11:21:55;;;;;;;5.33;2.43;;;8.90;1.00;;;;;;5077864;28;22616;-72
2023/12/30 11:24:22;;;;;;;4.73;2.23;;;9.10;1.00;;;;;;5065760;28;20517;-71
2023/12/30 11:26:52;;;;;;;6.37;2.90;;;9.10;1.00;;;;;;5066485;28;20819;-72
2023/12/30 11:29:21;;;;;;;3.83;1.70;;;9.10;1.00;;;;;;5075798;28;20473;-71
2023/12/30 11:31:49;;;;;;;2.57;2.37;;;9.20;1.00;;;;;;5084814;27;20490;-72
2023/12/30 11:34:20;;;;;;;4.63;2.20;;;9.10;1.00;;;;;;5086228;27;20450;-71
2023/12/30 11:36:49;;;;;;;6.57;2.80;;;9.00;1.00;;;;;;5087724;27;20524;-73
2023/12/30 11:39:24;;;;;;;8.17;2.87;;;8.90;1.00;;;;;;5089433;27;20490;-71
2023/12/30 11:41:53;;;;;;;6.90;2.40;;;8.90;1.00;;;;;;5093560;27;21242;-71
2023/12/30 11:44:20;;;;;;;4.33;2.87;;;8.90;1.00;;;;;;5090803;28;20469;-72
2023/12/30 11:46:48;;;;;;;4.20;2.10;;;8.90;1.00;;;;;;5088446;28;20642;-74
2023/12/30 11:49:21;;;;;;;3.03;1.70;;;8.90;1.00;;;;;;5090056;27;20472;-72
2023/12/30 11:51:50;;;;;;;4.60;2.30;;;8.90;1.00;;;;;;5092198;28;20573;-71
2023/12/30 11:54:17;;;;;;;2.30;2.00;;;8.90;1.00;;;;;;5091226;27;20447;-71
2023/12/30 11:56:44;;;;;;;3.90;2.40;;;9.00;1.00;;;;;;5092765;27;20450;-72
2023/12/30 11:59:11;;;;;;;6.70;2.73;;;9.10;1.00;;;;;;5090039;27;20494;-73
2023/12/30 12:01:38;;;;;;;4.77;2.70;;;9.20;1.00;;;;;;5090670;28;20455;-73
2023/12/30 12:04:05;;;;;;;9.43;3.20;;;9.20;1.00;;;;;;5091849;27;20524;-72
2023/12/30 12:06:34;;;;;;;6.13;2.30;;;9.20;1.00;;;;;;5088645;27;20477;-73
2023/12/30 12:09:04;;;;;;;3.00;2.07;;;9.20;1.00;;;;;;5088273;27;20513;-74
2023/12/30 12:11:31;;;;;;;4.83;1.80;;;9.30;1.00;;;;;;5069419;27;20470;-73
2023/12/30 12:13:58;;;;;;;2.87;2.00;;;9.20;1.00;;;;;;5077126;27;20978;-73
2023/12/30 12:16:27;;;;;;;3.93;2.43;;;9.20;1.00;;;;;;5090580;28;21861;-77
2023/12/30 12:18:55;;;;;;;4.10;2.43;;;9.20;1.00;;;;;;5077300;27;20480;-74
2023/12/30 12:21:22;;;;;;;6.50;2.47;;;9.20;1.00;;;;;;5071772;27;20458;-75
2023/12/30 12:23:50;;;;;;;6.00;3.20;;;9.20;1.00;;;;;;5086691;27;20451;-74
2023/12/30 12:26:17;;;;;;;8.60;3.00;;;9.40;1.00;;;;;;5084973;27;20474;-74
2023/12/30 12:28:46;;;;;;;7.23;3.37;;;9.40;1.00;;;;;;5076489;27;20506;-76
2023/12/30 12:31:15;;;;;;;3.60;2.40;;;9.50;1.00;;;;;;5085470;27;20454;-74
2023/12/30 12:33:41;;;;;;;4.87;2.50;;;9.50;1.00;;;;;;5087516;28;20478;-75
2023/12/30 12:36:09;;;;;;;3.27;2.53;;;9.50;1.00;;;;;;5089761;28;20513;-76
2023/12/30 12:38:35;;;;;;;5.63;3.00;;;9.40;1.00;;;;;;5081071;27;20501;-75
2023/12/30 12:41:06;;;;;;;3.70;2.87;;;9.40;1.00;;;;;;5071262;27;20597;-75
2023/12/30 12:43:33;;;;;;;10.03;2.67;;;9.40;1.00;;;;;;5084967;28;20553;-73
2023/12/30 12:46:02;;;;;;;8.53;3.43;;;9.50;1.00;;;;;;5090134;27;20549;-77
2023/12/30 12:48:29;;;;;;;3.43;2.40;;;9.60;1.00;;;;;;5087275;27;20962;-75
2023/12/30 12:50:56;;;;;;;5.90;2.70;;;9.60;1.00;;;;;;5089786;27;21116;-74
2023/12/30 12:53:23;;;;;;;6.60;2.90;;;9.50;1.00;;;;;;5087278;27;20474;-76
2023/12/30 12:55:50;;;;;;;5.87;2.63;;;9.50;1.00;;;;;;5075594;27;20459;-76
2023/12/30 12:58:19;;;;;;;5.17;2.80;;;9.50;1.00;;;;;;5072435;28;20500;-74
2023/12/30 13:00:46;;;;;;;5.30;2.70;;;9.60;1.00;;;;;;5091191;27;20533;-75
2023/12/30 13:03:13;;;;;;;5.43;2.60;;;9.60;1.00;;;;;;5087948;27;20451;-75
2023/12/30 13:05:40;;;;;;;4.90;3.60;;;9.60;1.00;;;;;;5090054;28;20459;-74
2023/12/30 13:08:09;;;;;;;6.17;2.90;;;9.50;1.00;;;;;;5092351;27;21157;-76
2023/12/30 13:10:41;;;;;;;4.80;2.93;;;9.60;1.00;;;;;;5089835;28;20470;-74